createdAt,value
2023-03-22T00:01:34.736Z,73.66
2023-03-22T00:04:02.533Z,73.99
2023-03-22T00:06:30.377Z,73.84
2023-03-22T00:08:58.200Z,73.35
2023-03-22T00:11:28.085Z,73.76
2023-03-22T00:13:56.308Z,74.07
2023-03-22T00:16:24.277Z,73.85
2023-03-22T00:18:52.403Z,73.91
2023-03-22T00:21:21.907Z,74.18
2023-03-22T00:23:49.686Z,74.26
2023-03-22T00:26:17.585Z,74.53
2023-03-22T00:28:46.809Z,73.99
2023-03-22T00:31:14.696Z,74.02
2023-03-22T00:33:43.814Z,73.93
2023-03-22T00:36:13.750Z,73.95
2023-03-22T00:38:43.410Z,73.49
2023-03-22T00:41:16.311Z,73.68
2023-03-22T00:43:46.788Z,73.96
2023-03-22T00:46:16.207Z,73.69
2023-03-22T00:48:45.033Z,73.52
2023-03-22T00:51:13.660Z,73.77
2023-03-22T00:53:43.671Z,74.16
2023-03-22T00:56:15.637Z,73.84
2023-03-22T00:58:44.050Z,73.98
2023-03-22T01:01:14.528Z,74.13
2023-03-22T01:03:44.166Z,73.75
2023-03-22T01:06:12.608Z,73.38
2023-03-22T01:08:41.497Z,73.48
2023-03-22T01:11:11.141Z,72.96
2023-03-22T01:13:41.752Z,72.66
2023-03-22T01:16:11.564Z,72.64
2023-03-22T01:18:40.893Z,72.41
2023-03-22T01:21:09.522Z,72.15
2023-03-22T01:23:37.770Z,72.42
2023-03-22T01:26:06.584Z,71.59
2023-03-22T01:28:34.393Z,71.90
2023-03-22T01:31:04.236Z,72.05
2023-03-22T01:33:32.547Z,71.91
2023-03-22T01:36:01.792Z,71.64
2023-03-22T01:38:29.725Z,71.80
2023-03-22T01:40:58.158Z,71.57
2023-03-22T01:43:25.897Z,71.92
2023-03-22T01:45:54.605Z,71.63
2023-03-22T01:48:28.930Z,71.35
2023-03-22T01:51:08.826Z,71.06
2023-03-22T01:53:42.539Z,70.99
2023-03-22T01:56:13.050Z,71.28
2023-03-22T01:58:43.091Z,70.97
2023-03-22T02:01:12.706Z,70.95
2023-03-22T02:03:49.511Z,70.47
2023-03-22T02:06:19.469Z,71.29
2023-03-22T02:08:47.633Z,71.04
2023-03-22T02:11:21.008Z,71.10
2023-03-22T02:14:09.482Z,70.72
2023-03-22T02:16:55.707Z,70.66
2023-03-22T02:20:10.402Z,71.67
2023-03-22T02:23:16.727Z,72.40
2023-03-22T02:26:32.515Z,71.72
2023-03-22T02:29:12.351Z,71.50
2023-03-22T02:32:04.052Z,72.00
2023-03-22T02:35:05.405Z,71.58
2023-03-22T02:38:22.999Z,72.20
2023-03-22T02:41:06.226Z,72.25
2023-03-22T02:43:38.677Z,71.78
2023-03-22T02:46:12.896Z,71.59
2023-03-22T02:48:51.593Z,71.19
2023-03-22T02:51:26.786Z,71.08
2023-03-22T02:54:03.738Z,71.25
2023-03-22T02:56:41.483Z,70.70
2023-03-22T02:59:13.210Z,71.71
2023-03-22T03:01:48.441Z,71.55
2023-03-22T03:04:22.896Z,71.28
2023-03-22T03:06:55.153Z,71.18
2023-03-22T03:09:25.455Z,71.19
2023-03-22T03:11:55.436Z,70.56
2023-03-22T03:14:26.718Z,71.18
2023-03-22T03:17:17.140Z,71.55
2023-03-22T03:20:00.430Z,72.10
2023-03-22T03:22:43.747Z,71.63
2023-03-22T03:25:27.068Z,72.22
2023-03-22T03:28:03.131Z,72.63
2023-03-22T03:30:40.735Z,72.60
2023-03-22T03:33:17.636Z,73.36
2023-03-22T03:35:51.841Z,72.08
2023-03-22T03:38:26.309Z,72.98
2023-03-22T03:41:00.107Z,73.03
2023-03-22T03:43:29.436Z,73.23
2023-03-22T03:45:57.999Z,72.79
2023-03-22T03:48:30.132Z,73.84
2023-03-22T03:51:01.013Z,73.59
2023-03-22T03:53:29.482Z,73.60
2023-03-22T03:55:57.693Z,74.52
2023-03-22T03:58:25.566Z,74.32
2023-03-22T04:00:54.713Z,74.59
2023-03-22T04:03:22.560Z,74.03
2023-03-22T04:05:50.468Z,74.43
2023-03-22T04:08:18.309Z,74.77
2023-03-22T04:10:51.726Z,74.55
2023-03-22T04:13:21.432Z,74.70
2023-03-22T04:15:53.076Z,75.02
2023-03-22T04:18:22.403Z,75.05
2023-03-22T04:20:53.402Z,74.98
2023-03-22T04:23:23.228Z,75.54
2023-03-22T04:25:51.093Z,75.09
2023-03-22T04:28:19.841Z,74.86
2023-03-22T04:30:51.869Z,75.21
2023-03-22T04:33:19.985Z,75.47
2023-03-22T04:35:49.995Z,75.55
2023-03-22T04:38:18.313Z,75.71
2023-03-22T04:40:46.701Z,75.53
2023-03-22T04:43:15.749Z,75.06
2023-03-22T04:45:43.888Z,75.29
2023-03-22T04:48:11.724Z,75.29
2023-03-22T04:50:41.080Z,75.47
2023-03-22T04:53:12.340Z,75.10
2023-03-22T04:55:40.230Z,75.41
2023-03-22T04:58:08.086Z,75.03
2023-03-22T05:00:37.799Z,75.50
2023-03-22T05:03:05.906Z,75.26
2023-03-22T05:05:33.801Z,75.01
2023-03-22T05:08:01.648Z,74.87
2023-03-22T05:10:31.053Z,75.44
2023-03-22T05:12:58.887Z,75.48
2023-03-22T05:15:26.794Z,75.53
2023-03-22T05:17:55.635Z,75.29
2023-03-22T05:20:23.530Z,75.83
2023-03-22T05:22:51.464Z,75.55
2023-03-22T05:25:19.604Z,75.84
2023-03-22T05:27:50.197Z,75.71
2023-03-22T05:30:18.431Z,75.77
2023-03-22T05:32:47.410Z,75.68
2023-03-22T05:35:15.218Z,75.95
2023-03-22T05:37:43.014Z,75.84
2023-03-22T05:40:11.433Z,75.69
2023-03-22T05:42:39.318Z,76.31
2023-03-22T05:45:11.103Z,75.49
2023-03-22T05:47:39.490Z,75.23
2023-03-22T05:50:12.460Z,75.33
2023-03-22T05:52:40.800Z,75.16
2023-03-22T05:55:09.350Z,75.07
2023-03-22T05:57:37.141Z,75.75
2023-03-22T06:00:11.082Z,75.71
2023-03-22T06:02:40.408Z,74.98
2023-03-22T06:05:10.897Z,75.39
2023-03-22T06:07:38.964Z,75.49
2023-03-22T06:10:10.679Z,75.12
2023-03-22T06:12:38.589Z,75.02
2023-03-22T06:15:08.327Z,74.85
2023-03-22T06:17:36.482Z,74.27
2023-03-22T06:20:10.172Z,74.82
2023-03-22T06:22:38.483Z,74.79
2023-03-22T06:25:10.955Z,74.77
2023-03-22T06:27:39.289Z,74.49
2023-03-22T06:30:09.342Z,74.45
2023-03-22T06:32:37.130Z,74.67
2023-03-22T06:35:07.784Z,74.26
2023-03-22T06:37:35.638Z,74.20
2023-03-22T06:40:03.639Z,74.43
2023-03-22T06:42:31.728Z,74.31
2023-03-22T06:44:59.573Z,74.30
2023-03-22T06:47:27.838Z,73.53
2023-03-22T06:49:55.782Z,73.78
2023-03-22T06:52:25.018Z,73.61
2023-03-22T06:55:00.520Z,73.29
2023-03-22T06:57:28.392Z,71.08
2023-03-22T06:59:56.265Z,69.58
2023-03-22T07:02:24.142Z,67.72
2023-03-22T07:04:52.003Z,65.92
2023-03-22T07:07:19.883Z,64.13
2023-03-22T07:09:49.934Z,64.30
2023-03-22T07:12:18.713Z,63.89
2023-03-22T07:14:46.776Z,64.86
2023-03-22T07:17:15.036Z,63.00
2023-03-22T07:19:43.286Z,62.09
2023-03-22T07:22:11.153Z,63.84
2023-03-22T07:24:50.342Z,64.14
2023-03-22T07:27:25.209Z,65.74
2023-03-22T07:29:53.154Z,65.12
2023-03-22T07:32:21.266Z,64.67
2023-03-22T07:34:49.240Z,65.68
2023-03-22T07:37:17.139Z,66.54
2023-03-22T07:39:45.083Z,65.87
2023-03-22T07:42:12.930Z,65.75
2023-03-22T07:44:42.357Z,65.18
2023-03-22T07:47:10.292Z,63.53
2023-03-22T07:49:38.435Z,63.63
2023-03-22T07:52:06.541Z,63.60
2023-03-22T07:54:34.782Z,64.15
2023-03-22T07:57:02.956Z,67.14
2023-03-22T07:59:31.273Z,65.05
2023-03-22T08:02:00.834Z,65.11
2023-03-22T08:04:28.869Z,64.89
2023-03-22T08:06:58.566Z,65.12
2023-03-22T08:09:26.677Z,65.22
2023-03-22T08:11:54.736Z,66.44
2023-03-22T08:14:35.450Z,66.07
2023-03-22T08:17:06.013Z,66.18
2023-03-22T08:19:34.323Z,66.92
2023-03-22T08:22:02.544Z,67.41
2023-03-22T08:24:30.407Z,66.31
2023-03-22T08:26:58.214Z,66.85
2023-03-22T08:29:26.115Z,67.94
2023-03-22T08:31:54.107Z,67.41
2023-03-22T08:34:23.302Z,66.86
2023-03-22T08:36:51.140Z,67.11
2023-03-22T08:39:19.024Z,67.06
2023-03-22T08:41:46.799Z,66.51
2023-03-22T08:44:14.672Z,66.34
2023-03-22T08:46:43.912Z,66.79
2023-03-22T08:49:11.824Z,66.38
2023-03-22T08:51:41.372Z,67.55
2023-03-22T08:54:09.489Z,66.64
2023-03-22T08:56:38.461Z,67.15
2023-03-22T08:59:06.735Z,67.10
2023-03-22T09:01:35.193Z,66.06
2023-03-22T09:04:03.905Z,66.02
2023-03-22T09:06:32.331Z,66.38
2023-03-22T09:09:03.713Z,64.95
2023-03-22T09:11:31.573Z,65.85
2023-03-22T09:13:59.375Z,65.01
2023-03-22T09:16:27.208Z,65.17
2023-03-22T09:18:55.076Z,66.22
2023-03-22T09:21:23.030Z,66.20
2023-03-22T09:23:50.980Z,65.33
2023-03-22T09:26:22.781Z,64.94
2023-03-22T09:28:51.317Z,64.32
2023-03-22T09:31:20.695Z,64.08
2023-03-22T09:33:49.131Z,62.83
2023-03-22T09:36:17.714Z,62.11
2023-03-22T09:38:46.584Z,61.67
2023-03-22T09:41:23.120Z,62.83
2023-03-22T09:43:54.492Z,63.06
2023-03-22T09:46:31.788Z,62.36
2023-03-22T09:49:03.024Z,63.56
2023-03-22T09:51:41.536Z,62.83
2023-03-22T09:54:18.498Z,63.28
2023-03-22T09:56:56.369Z,63.34
2023-03-22T09:59:34.015Z,62.91
2023-03-22T10:02:16.126Z,63.32
2023-03-22T10:04:59.008Z,63.33
2023-03-22T10:07:35.635Z,64.26
2023-03-22T10:10:10.731Z,63.57
2023-03-22T10:12:47.398Z,63.96
2023-03-22T10:15:20.265Z,64.44
2023-03-22T10:17:56.144Z,64.17
2023-03-22T10:20:40.549Z,63.63
2023-03-22T10:23:17.738Z,63.50
2023-03-22T10:25:45.800Z,63.25
2023-03-22T10:28:23.494Z,64.12
2023-03-22T10:30:56.475Z,64.44
2023-03-22T10:33:36.254Z,65.21
2023-03-22T10:36:07.214Z,66.29
2023-03-22T10:38:48.713Z,66.64
2023-03-22T10:41:21.992Z,66.32
2023-03-22T10:43:56.766Z,67.78
2023-03-22T10:46:31.808Z,68.32
2023-03-22T10:49:03.434Z,68.43
2023-03-22T10:51:40.953Z,68.78
2023-03-22T10:54:16.198Z,70.46
2023-03-22T10:56:45.910Z,70.05
2023-03-22T10:59:47.323Z,71.63
2023-03-22T11:02:20.929Z,72.00
2023-03-22T11:04:51.139Z,72.17
2023-03-22T11:07:30.900Z,72.08
2023-03-22T11:10:21.742Z,73.31
2023-03-22T11:12:54.002Z,73.71
2023-03-22T11:15:29.076Z,73.10
2023-03-22T11:18:09.161Z,72.37
2023-03-22T11:20:37.157Z,73.12
2023-03-22T11:23:06.950Z,72.78
2023-03-22T11:25:39.005Z,72.46
2023-03-22T11:28:18.904Z,72.02
2023-03-22T11:31:07.142Z,72.46
2023-03-22T11:33:36.801Z,73.01
2023-03-22T11:36:17.272Z,72.42
2023-03-22T11:38:47.262Z,72.84
2023-03-22T11:41:24.603Z,72.82
2023-03-22T11:43:56.746Z,72.52
2023-03-22T11:46:26.690Z,71.50
2023-03-22T11:49:01.337Z,71.38
2023-03-22T11:51:35.043Z,71.93
2023-03-22T11:54:11.999Z,71.89
2023-03-22T11:56:50.879Z,71.89
2023-03-22T11:59:25.744Z,72.14
2023-03-22T12:02:06.122Z,72.38
2023-03-22T12:04:41.303Z,72.40
2023-03-22T12:07:17.875Z,71.93
2023-03-22T12:09:54.769Z,72.13
2023-03-22T12:12:29.845Z,71.79
2023-03-22T12:15:06.473Z,71.94
2023-03-22T12:17:39.293Z,71.78
2023-03-22T12:20:21.220Z,72.00
2023-03-22T12:22:54.248Z,72.24
2023-03-22T12:25:28.222Z,72.60
2023-03-22T12:28:02.199Z,72.55
2023-03-22T12:30:38.616Z,72.07
2023-03-22T12:33:18.737Z,72.46
2023-03-22T12:35:48.716Z,72.40
2023-03-22T12:38:30.410Z,72.40
2023-03-22T12:41:04.261Z,72.18
2023-03-22T12:43:51.862Z,71.79
2023-03-22T12:46:25.174Z,72.00
2023-03-22T12:49:02.014Z,72.08
2023-03-22T12:51:30.009Z,71.55
2023-03-22T12:54:00.605Z,71.79
2023-03-22T12:56:37.771Z,71.38
2023-03-22T12:59:13.948Z,71.34
2023-03-22T13:01:52.431Z,71.60
2023-03-22T13:04:53.277Z,71.56
2023-03-22T13:07:52.580Z,71.15
2023-03-22T13:10:48.588Z,70.75
2023-03-22T13:13:34.029Z,71.44
2023-03-22T13:16:16.829Z,71.44
2023-03-22T13:19:03.261Z,71.27
2023-03-22T13:21:35.687Z,71.56
2023-03-22T13:24:23.332Z,70.73
2023-03-22T13:26:53.741Z,70.56
2023-03-22T13:29:25.418Z,70.45
2023-03-22T13:32:00.358Z,70.67
2023-03-22T13:34:38.654Z,70.83
2023-03-22T13:37:30.247Z,70.77
2023-03-22T13:40:02.239Z,71.90
2023-03-22T13:42:37.515Z,72.51
2023-03-22T13:45:11.066Z,72.47
2023-03-22T13:47:46.369Z,73.18
2023-03-22T13:50:23.348Z,72.90
2023-03-22T13:53:03.303Z,72.67
2023-03-22T13:55:48.221Z,73.08
2023-03-22T13:58:37.639Z,73.02
2023-03-22T14:01:09.091Z,73.66
2023-03-22T14:03:43.177Z,74.03
2023-03-22T14:06:20.236Z,74.13
2023-03-22T14:08:58.334Z,73.94
2023-03-22T14:11:31.389Z,74.35
2023-03-22T14:14:07.731Z,76.06
2023-03-22T14:16:42.630Z,76.24
2023-03-22T14:19:19.624Z,77.58
